Time;durP1;ratioP1;P1;durP2;ratioP2;P2;SDS_P1;SDS_P2;PMS_P1;PMS_P2;Temp;Humidity;BMP_temperature;BMP_pressure;BME280_temperature;BME280_humidity;BME280_pressure;Samples;Min_cycle;Max_cycle;Signal;HPM_P1;HPM_P2
2020/12/12 00:02:24;;;;;;;58.03;33.93;;;4.70;99.90;;;;;;4404744;32;20152;-69
2020/12/12 00:04:50;;;;;;;64.90;36.07;;;4.70;99.90;;;;;;4402715;32;20186;-69
2020/12/12 00:07:17;;;;;;;53.47;32.70;;;4.90;99.90;;;;;;4397332;32;20216;-68
2020/12/12 00:09:49;;;;;;;61.00;35.30;;;4.70;99.90;;;;;;4403497;32;20257;-68
2020/12/12 00:12:16;;;;;;;53.97;32.43;;;4.80;99.90;;;;;;4407352;32;20171;-68
2020/12/12 00:14:42;;;;;;;50.53;33.00;;;4.80;99.90;;;;;;4406450;32;20163;-68
2020/12/12 00:17:12;;;;;;;61.10;35.50;;;4.80;99.90;;;;;;4400134;32;20211;-68
2020/12/12 00:19:41;;;;;;;55.83;33.73;;;4.70;99.90;;;;;;4396616;32;20900;-69
2020/12/12 00:22:07;;;;;;;53.20;33.03;;;4.70;99.90;;;;;;4406414;32;20195;-69
2020/12/12 00:24:33;;;;;;;52.90;32.47;;;4.70;99.90;;;;;;4392495;32;20219;-70
2020/12/12 00:27:00;;;;;;;55.57;33.20;;;4.80;99.90;;;;;;4401383;32;20219;-68
2020/12/12 00:29:26;;;;;;;53.87;31.77;;;4.70;99.90;;;;;;4396793;32;20279;-69
2020/12/12 00:31:56;;;;;;;58.17;34.10;;;4.70;99.90;;;;;;4393135;32;20174;-69
2020/12/12 00:34:24;;;;;;;52.93;33.87;;;4.80;99.90;;;;;;4393499;32;20223;-69
2020/12/12 00:36:54;;;;;;;65.43;35.23;;;4.70;99.90;;;;;;4396575;32;20172;-69
2020/12/12 00:39:23;;;;;;;57.20;32.87;;;4.70;99.90;;;;;;4392661;32;20187;-69
2020/12/12 00:41:50;;;;;;;66.43;37.17;;;4.70;99.90;;;;;;4392017;32;20509;-68
2020/12/12 00:44:17;;;;;;;62.60;34.50;;;4.70;99.90;;;;;;4392194;32;20207;-68
2020/12/12 00:46:44;;;;;;;53.97;32.87;;;4.70;99.90;;;;;;4400952;32;20572;-68
2020/12/12 00:49:11;;;;;;;61.23;34.90;;;4.70;99.90;;;;;;4403194;32;20160;-69
2020/12/12 00:51:38;;;;;;;58.67;34.80;;;4.80;99.90;;;;;;4397407;32;20223;-69
2020/12/12 00:54:08;;;;;;;56.33;33.07;;;4.70;99.90;;;;;;4397996;32;20211;-69
2020/12/12 00:56:34;;;;;;;51.43;31.07;;;4.80;99.90;;;;;;4392778;32;20167;-67
2020/12/12 00:59:01;;;;;;;55.47;32.97;;;4.80;99.90;;;;;;4400851;32;20207;-68
2020/12/12 01:01:27;;;;;;;51.60;31.63;;;4.80;99.90;;;;;;4398592;32;20219;-70
2020/12/12 01:03:53;;;;;;;54.30;32.63;;;4.80;99.90;;;;;;4403212;32;20502;-68
2020/12/12 01:06:20;;;;;;;54.30;33.67;;;4.90;99.90;;;;;;4405998;32;20216;-70
2020/12/12 01:08:47;;;;;;;57.07;33.50;;;4.90;99.90;;;;;;4406161;32;20175;-70
2020/12/12 01:11:15;;;;;;;63.00;35.70;;;5.00;99.90;;;;;;4400818;32;20167;-68
2020/12/12 01:13:44;;;;;;;54.97;32.43;;;4.90;99.90;;;;;;4402800;32;20677;-68
2020/12/12 01:16:11;;;;;;;58.33;34.20;;;4.90;99.90;;;;;;4397232;32;20210;-68
2020/12/12 01:18:40;;;;;;;55.77;34.10;;;4.90;99.90;;;;;;4404122;32;20591;-68
2020/12/12 01:21:06;;;;;;;57.97;34.60;;;4.90;99.90;;;;;;4390569;32;20200;-68
2020/12/12 01:23:33;;;;;;;62.20;35.77;;;5.00;99.90;;;;;;4401285;32;20188;-68
2020/12/12 01:26:02;;;;;;;57.63;34.40;;;4.90;99.90;;;;;;4394596;32;20180;-69
2020/12/12 01:28:32;;;;;;;63.87;35.60;;;4.90;99.90;;;;;;4392404;32;20623;-69
2020/12/12 01:31:00;;;;;;;59.13;34.80;;;4.90;99.90;;;;;;4395089;32;20221;-68
2020/12/12 01:33:27;;;;;;;62.93;35.23;;;4.90;99.90;;;;;;4396813;32;20179;-69
2020/12/12 01:35:56;;;;;;;61.10;34.53;;;4.90;99.90;;;;;;4390884;32;20523;-69
2020/12/12 01:38:25;;;;;;;56.60;33.50;;;5.00;99.90;;;;;;4391386;32;20167;-68
2020/12/12 01:40:55;;;;;;;59.47;35.67;;;5.00;99.90;;;;;;4393761;32;20212;-69
2020/12/12 01:43:21;;;;;;;52.77;33.47;;;5.00;99.90;;;;;;4395059;32;20168;-69
2020/12/12 01:45:48;;;;;;;59.80;35.53;;;5.00;99.90;;;;;;4400516;32;20607;-69
2020/12/12 01:48:16;;;;;;;65.03;35.97;;;5.00;99.90;;;;;;4395328;32;20171;-70
2020/12/12 01:50:46;;;;;;;56.17;32.70;;;5.00;99.90;;;;;;4402103;32;20235;-68
2020/12/12 01:53:13;;;;;;;61.30;34.77;;;4.90;99.90;;;;;;4401377;32;20215;-68
2020/12/12 01:55:48;;;;;;;58.60;34.20;;;4.90;99.90;;;;;;4396187;32;20488;-68
2020/12/12 01:58:15;;;;;;;55.63;33.10;;;4.90;99.90;;;;;;4405796;32;20528;-69
2020/12/12 02:00:42;;;;;;;67.13;36.87;;;4.80;99.90;;;;;;4400851;32;20219;-68
2020/12/12 02:03:11;;;;;;;58.13;33.33;;;5.00;99.90;;;;;;4405452;32;20906;-68
2020/12/12 02:05:43;;;;;;;53.80;34.63;;;4.90;99.90;;;;;;4391213;32;20580;-69
2020/12/12 02:08:14;;;;;;;67.23;37.30;;;4.90;99.90;;;;;;4390857;32;20159;-69
2020/12/12 02:10:42;;;;;;;66.27;36.20;;;4.80;99.90;;;;;;4401784;32;20160;-68
2020/12/12 02:13:11;;;;;;;70.47;37.43;;;4.90;99.90;;;;;;4395460;32;20195;-69
2020/12/12 02:15:38;;;;;;;60.93;35.00;;;4.80;99.90;;;;;;4399124;32;20287;-69
2020/12/12 02:18:06;;;;;;;59.53;33.73;;;5.00;99.90;;;;;;4400492;32;20211;-68
2020/12/12 02:20:34;;;;;;;59.50;34.77;;;4.90;99.90;;;;;;4406445;32;20450;-68
2020/12/12 02:23:01;;;;;;;58.60;33.67;;;5.00;99.90;;;;;;4394161;32;20216;-70
2020/12/12 02:25:28;;;;;;;53.77;31.93;;;5.00;99.90;;;;;;4391272;32;20175;-67
2020/12/12 02:27:56;;;;;;;52.00;32.40;;;5.10;99.90;;;;;;4392609;32;20572;-68
2020/12/12 02:30:23;;;;;;;61.70;34.23;;;5.10;99.90;;;;;;4405162;32;20549;-68
2020/12/12 02:32:51;;;;;;;52.63;32.33;;;5.00;99.90;;;;;;4401242;32;20276;-67
2020/12/12 02:35:18;;;;;;;54.47;33.07;;;5.10;99.90;;;;;;4405079;32;20292;-68
2020/12/12 02:37:44;;;;;;;52.40;31.83;;;5.10;99.90;;;;;;4391518;32;20555;-68
2020/12/12 02:40:11;;;;;;;57.67;32.90;;;5.20;99.90;;;;;;4405930;32;20491;-68
2020/12/12 02:42:38;;;;;;;51.87;29.87;;;5.20;99.90;;;;;;4404068;32;20199;-67
2020/12/12 02:45:04;;;;;;;54.73;31.97;;;5.20;99.90;;;;;;4392388;32;20500;-68
2020/12/12 02:47:34;;;;;;;51.93;32.33;;;5.20;99.90;;;;;;4391449;32;20204;-68
2020/12/12 02:50:11;;;;;;;53.43;30.40;;;5.20;99.90;;;;;;4389558;32;20156;-68
2020/12/12 02:52:39;;;;;;;53.57;30.77;;;5.10;99.90;;;;;;4401291;32;20197;-68
2020/12/12 02:55:10;;;;;;;57.93;33.77;;;5.10;99.90;;;;;;4390303;32;20212;-67
2020/12/12 02:57:38;;;;;;;49.43;29.77;;;5.10;99.90;;;;;;4390734;32;20216;-69
2020/12/12 03:00:08;;;;;;;53.43;31.97;;;5.10;99.90;;;;;;4392201;32;20162;-69
2020/12/12 03:02:36;;;;;;;50.43;30.17;;;5.20;99.90;;;;;;4390973;32;20179;-68
2020/12/12 03:05:04;;;;;;;52.77;32.57;;;5.10;99.90;;;;;;4392211;32;20212;-68
2020/12/12 03:07:30;;;;;;;56.43;31.87;;;5.10;99.90;;;;;;4403733;32;20201;-68
2020/12/12 03:10:04;;;;;;;56.03;31.60;;;5.10;99.90;;;;;;4395973;32;20229;-68
2020/12/12 03:12:34;;;;;;;52.73;31.37;;;5.10;99.90;;;;;;4393628;32;20199;-68
2020/12/12 03:15:01;;;;;;;50.00;31.17;;;5.00;99.90;;;;;;4394965;32;20234;-68
2020/12/12 03:17:31;;;;;;;52.63;30.77;;;5.00;99.90;;;;;;4405075;32;20195;-69
2020/12/12 03:19:57;;;;;;;50.33;30.60;;;5.20;99.90;;;;;;4402400;32;20664;-68
2020/12/12 03:22:26;;;;;;;46.67;28.67;;;5.20;99.90;;;;;;4396445;32;20513;-68
2020/12/12 03:24:52;;;;;;;46.80;29.20;;;5.20;99.90;;;;;;4393639;32;20699;-68
2020/12/12 03:27:22;;;;;;;45.80;28.97;;;5.20;99.90;;;;;;4401855;32;20211;-67
2020/12/12 03:29:50;;;;;;;52.60;30.80;;;5.20;99.90;;;;;;4401501;32;20207;-67
2020/12/12 03:32:17;;;;;;;55.83;32.03;;;5.30;99.90;;;;;;4390582;32;20152;-69
2020/12/12 03:34:44;;;;;;;45.37;28.73;;;5.30;99.90;;;;;;4389300;32;20219;-69
2020/12/12 03:37:12;;;;;;;56.20;31.63;;;5.30;99.90;;;;;;4390305;32;20216;-69
2020/12/12 03:39:39;;;;;;;48.93;29.13;;;5.20;99.90;;;;;;4390905;32;20148;-69
2020/12/12 03:42:05;;;;;;;49.33;29.80;;;5.10;99.90;;;;;;4399914;32;20211;-69
2020/12/12 03:44:32;;;;;;;46.07;29.80;;;5.20;99.90;;;;;;4402491;32;20255;-69
2020/12/12 03:46:58;;;;;;;46.13;28.13;;;5.20;99.90;;;;;;4392905;32;20584;-68
2020/12/12 03:49:25;;;;;;;46.13;28.30;;;5.30;99.90;;;;;;4390995;32;20200;-67
2020/12/12 03:51:54;;;;;;;44.73;29.23;;;5.30;99.90;;;;;;4392849;32;20246;-68
2020/12/12 03:54:21;;;;;;;48.23;29.67;;;5.30;99.90;;;;;;4404382;32;20216;-68
2020/12/12 03:56:49;;;;;;;42.00;26.90;;;5.40;99.90;;;;;;4402035;32;20643;-68
2020/12/12 03:59:15;;;;;;;43.83;27.00;;;5.40;99.90;;;;;;4397101;32;20354;-68
2020/12/12 04:01:42;;;;;;;42.70;26.03;;;5.40;99.90;;;;;;4389919;32;20160;-68
2020/12/12 04:04:08;;;;;;;44.97;28.90;;;5.40;99.90;;;;;;4389988;32;20172;-68
2020/12/12 04:06:37;;;;;;;44.63;28.63;;;5.40;99.90;;;;;;4398677;32;20209;-68
2020/12/12 04:09:04;;;;;;;40.20;27.17;;;5.40;99.90;;;;;;4399521;32;20212;-68
2020/12/12 04:11:30;;;;;;;43.67;28.53;;;5.40;99.90;;;;;;4395464;32;20542;-68
2020/12/12 04:13:58;;;;;;;43.73;28.93;;;5.40;99.90;;;;;;4390050;32;20204;-68
2020/12/12 04:16:24;;;;;;;46.40;28.73;;;5.40;99.90;;;;;;4398555;32;20218;-68
2020/12/12 04:18:52;;;;;;;44.33;26.77;;;5.30;99.90;;;;;;4398850;32;20170;-69
2020/12/12 04:21:20;;;;;;;41.27;25.70;;;5.40;99.90;;;;;;4393754;32;20653;-69
2020/12/12 04:23:47;;;;;;;37.37;25.20;;;5.40;99.90;;;;;;4401841;32;20282;-69
2020/12/12 04:26:14;;;;;;;38.67;25.70;;;5.40;99.90;;;;;;4390631;32;20230;-69
2020/12/12 04:28:43;;;;;;;39.13;26.20;;;5.50;99.90;;;;;;4400015;32;20227;-69
2020/12/12 04:31:10;;;;;;;41.83;26.67;;;5.40;99.90;;;;;;4393246;32;20160;-70
2020/12/12 04:33:37;;;;;;;45.20;27.50;;;5.30;99.90;;;;;;4387978;32;20298;-69
2020/12/12 04:36:06;;;;;;;39.27;25.77;;;5.30;99.90;;;;;;4391329;32;20172;-69
2020/12/12 04:38:35;;;;;;;38.33;26.40;;;5.30;99.90;;;;;;4403392;32;20498;-70
2020/12/12 04:41:05;;;;;;;40.60;26.60;;;5.50;99.90;;;;;;4392355;32;20174;-69
2020/12/12 04:43:31;;;;;;;40.10;26.03;;;5.50;99.90;;;;;;4390233;32;20210;-69
2020/12/12 04:45:59;;;;;;;42.73;27.23;;;5.50;99.90;;;;;;4389031;32;20159;-69
2020/12/12 04:48:25;;;;;;;41.93;28.10;;;5.40;99.90;;;;;;4391871;32;20231;-68
2020/12/12 04:50:53;;;;;;;39.10;26.73;;;5.40;99.90;;;;;;4389236;32;20176;-68
2020/12/12 04:53:24;;;;;;;43.37;28.07;;;5.50;99.90;;;;;;4389722;32;20211;-68
2020/12/12 04:55:52;;;;;;;39.70;26.80;;;5.50;99.90;;;;;;4391163;32;20140;-69
2020/12/12 04:58:23;;;;;;;43.50;28.00;;;5.40;99.90;;;;;;4397919;32;20619;-68
2020/12/12 05:00:52;;;;;;;44.00;27.53;;;5.40;99.90;;;;;;4402574;32;20212;-68
2020/12/12 05:03:21;;;;;;;40.80;27.10;;;5.40;99.90;;;;;;4392697;32;20172;-68
2020/12/12 05:05:48;;;;;;;53.27;30.73;;;5.50;99.90;;;;;;4393065;32;20270;-68
2020/12/12 05:08:16;;;;;;;45.23;28.57;;;5.50;99.90;;;;;;4404863;32;20199;-68
2020/12/12 05:10:45;;;;;;;44.93;27.37;;;5.50;99.90;;;;;;4398871;32;20152;-69
2020/12/12 05:13:21;;;;;;;45.07;28.03;;;5.50;99.90;;;;;;4393450;32;20577;-69
2020/12/12 05:15:48;;;;;;;42.50;27.50;;;5.60;99.90;;;;;;4392611;32;20215;-69
2020/12/12 05:18:15;;;;;;;50.77;30.67;;;5.40;99.90;;;;;;4393405;32;20275;-69
2020/12/12 05:20:44;;;;;;;51.37;29.60;;;5.50;99.90;;;;;;4405098;32;20577;-69
2020/12/12 05:23:17;;;;;;;49.33;29.80;;;5.60;99.90;;;;;;4398557;32;20170;-68
2020/12/12 05:25:44;;;;;;;44.90;29.00;;;5.40;99.90;;;;;;4398168;32;20182;-68
2020/12/12 05:28:13;;;;;;;43.90;28.93;;;5.40;99.90;;;;;;4406892;32;20201;-68
2020/12/12 05:30:44;;;;;;;44.27;27.93;;;5.50;99.90;;;;;;4391933;32;20242;-68
2020/12/12 05:33:12;;;;;;;46.27;28.43;;;5.50;99.90;;;;;;4391583;32;20223;-68
2020/12/12 05:35:38;;;;;;;53.73;30.00;;;5.60;99.90;;;;;;4392426;32;20227;-68
2020/12/12 05:38:06;;;;;;;52.23;29.83;;;5.60;99.90;;;;;;4395681;32;20228;-68
2020/12/12 05:40:35;;;;;;;52.40;29.90;;;5.60;99.90;;;;;;4392294;32;20176;-69
2020/12/12 05:43:02;;;;;;;47.47;28.63;;;5.60;99.90;;;;;;4394936;32;20278;-69
2020/12/12 05:45:31;;;;;;;54.90;31.20;;;5.70;99.90;;;;;;4395614;32;20180;-69
2020/12/12 05:47:59;;;;;;;51.00;28.87;;;5.60;99.90;;;;;;4397013;32;20233;-69
2020/12/12 05:50:25;;;;;;;48.10;29.10;;;5.70;99.90;;;;;;4401611;32;20707;-68
2020/12/12 05:52:53;;;;;;;54.40;30.67;;;5.70;99.90;;;;;;4395414;32;20212;-69
2020/12/12 05:55:21;;;;;;;50.37;29.37;;;5.70;99.90;;;;;;4391037;32;20277;-69
2020/12/12 05:57:51;;;;;;;59.90;32.90;;;5.70;99.90;;;;;;4391928;32;20157;-68
2020/12/12 06:00:17;;;;;;;51.33;30.17;;;5.70;99.90;;;;;;4400573;32;20243;-68
2020/12/12 06:02:51;;;;;;;50.67;30.13;;;5.70;99.90;;;;;;4390758;32;20229;-69
2020/12/12 06:05:28;;;;;;;48.23;27.47;;;5.80;99.90;;;;;;4400278;32;20220;-69
2020/12/12 06:08:06;;;;;;;50.73;28.97;;;5.80;99.90;;;;;;4391866;32;20514;-69
2020/12/12 06:10:34;;;;;;;53.80;31.87;;;5.70;99.90;;;;;;4390784;32;20148;-68
2020/12/12 06:13:02;;;;;;;50.20;28.10;;;5.70;99.90;;;;;;4390880;32;20164;-69
2020/12/12 06:15:42;;;;;;;51.50;29.67;;;5.60;99.90;;;;;;4397955;32;20182;-69
2020/12/12 06:18:29;;;;;;;52.27;29.87;;;5.60;99.90;;;;;;4396408;32;20168;-68
2020/12/12 06:21:11;;;;;;;60.17;32.10;;;5.60;99.90;;;;;;4391981;32;20198;-70
2020/12/12 06:23:43;;;;;;;54.03;28.97;;;5.70;99.90;;;;;;4402160;32;20163;-68
2020/12/12 06:26:12;;;;;;;51.70;30.70;;;5.70;99.90;;;;;;4398034;32;20195;-69
2020/12/12 06:28:42;;;;;;;58.03;29.87;;;5.70;99.90;;;;;;4397969;32;20183;-69
2020/12/12 06:31:10;;;;;;;62.13;30.13;;;5.70;99.90;;;;;;4394142;32;20174;-69
2020/12/12 06:33:48;;;;;;;55.90;31.23;;;5.70;99.90;;;;;;4404987;32;20243;-69
2020/12/12 06:36:26;;;;;;;53.23;30.63;;;5.70;99.90;;;;;;4394780;32;20156;-69
2020/12/12 06:39:26;;;;;;;51.33;29.50;;;5.70;99.90;;;;;;4394272;32;20167;-67
2020/12/12 06:41:55;;;;;;;54.57;29.27;;;5.70;99.90;;;;;;4390103;32;20169;-69
2020/12/12 06:44:32;;;;;;;66.00;31.80;;;5.70;99.90;;;;;;4391920;32;20224;-69
2020/12/12 06:46:58;;;;;;;54.53;30.10;;;5.70;99.90;;;;;;4402536;32;20175;-69
2020/12/12 06:49:27;;;;;;;55.93;31.33;;;5.80;99.90;;;;;;4398681;32;20164;-69
2020/12/12 06:51:59;;;;;;;57.30;30.60;;;5.70;99.90;;;;;;4393872;32;20186;-69
2020/12/12 06:54:28;;;;;;;48.20;28.77;;;5.70;99.90;;;;;;4393273;32;20603;-69
2020/12/12 06:56:55;;;;;;;60.83;31.83;;;5.80;99.90;;;;;;4392302;32;20194;-69
2020/12/12 06:59:31;;;;;;;60.67;32.40;;;5.80;99.90;;;;;;4392250;32;20198;-68
2020/12/12 07:01:58;;;;;;;56.13;31.20;;;5.80;99.90;;;;;;4396709;32;20163;-69
2020/12/12 07:04:34;;;;;;;52.33;30.17;;;5.80;99.90;;;;;;4396581;32;20544;-68
2020/12/12 07:07:07;;;;;;;60.20;32.00;;;5.80;99.90;;;;;;4393454;32;20206;-69
2020/12/12 07:09:37;;;;;;;49.40;29.53;;;5.90;99.90;;;;;;4397438;32;20156;-69
2020/12/12 07:12:04;;;;;;;59.63;32.13;;;5.90;99.90;;;;;;4401134;32;20179;-69
2020/12/12 07:14:31;;;;;;;49.17;29.70;;;5.90;99.90;;;;;;4394017;32;20160;-67
2020/12/12 07:17:07;;;;;;;55.80;30.87;;;5.90;99.90;;;;;;4400280;32;20609;-68
2020/12/12 07:19:36;;;;;;;58.83;32.00;;;5.80;99.90;;;;;;4391283;32;20178;-68
2020/12/12 07:22:06;;;;;;;60.70;32.63;;;5.80;99.90;;;;;;4393013;32;20172;-68
2020/12/12 07:24:42;;;;;;;56.60;31.37;;;5.80;99.90;;;;;;4396073;32;20223;-69
2020/12/12 07:27:13;;;;;;;58.40;31.97;;;5.90;99.90;;;;;;4398169;32;20155;-70
2020/12/12 07:29:40;;;;;;;55.07;31.10;;;5.90;99.90;;;;;;4391515;32;20234;-67
2020/12/12 07:32:13;;;;;;;52.83;30.03;;;6.00;99.90;;;;;;4395791;32;20195;-67
2020/12/12 07:34:39;;;;;;;56.93;31.83;;;5.90;99.90;;;;;;4395290;32;20175;-68
2020/12/12 07:37:10;;;;;;;70.53;35.13;;;6.00;99.90;;;;;;4235918;32;5271118;-68
2020/12/12 07:39:38;;;;;;;62.47;32.87;;;5.90;99.90;;;;;;4395562;32;20534;-68
2020/12/12 07:42:08;;;;;;;55.33;30.40;;;5.90;99.90;;;;;;4395008;32;20640;-69
2020/12/12 07:44:42;;;;;;;59.20;31.67;;;5.90;99.90;;;;;;4391478;32;20147;-68
2020/12/12 07:47:10;;;;;;;59.70;31.23;;;5.90;99.90;;;;;;4391400;32;20642;-69
2020/12/12 07:49:37;;;;;;;59.20;31.83;;;6.00;99.90;;;;;;4395317;32;20617;-68
2020/12/12 07:52:07;;;;;;;58.47;32.23;;;6.00;99.90;;;;;;4394237;32;20172;-69
2020/12/12 07:54:52;;;;;;;63.73;32.33;;;5.90;99.90;;;;;;4395867;32;20258;-68
2020/12/12 07:57:21;;;;;;;54.60;31.37;;;5.90;99.90;;;;;;4393009;32;20151;-70
2020/12/12 07:59:48;;;;;;;60.70;31.83;;;5.90;99.90;;;;;;4397201;32;20540;-67
2020/12/12 08:02:15;;;;;;;55.00;30.90;;;6.00;99.90;;;;;;4389496;32;20226;-68
2020/12/12 08:04:42;;;;;;;58.73;30.70;;;6.00;99.90;;;;;;4400714;32;20215;-68
2020/12/12 08:07:20;;;;;;;53.77;31.07;;;6.00;99.90;;;;;;4394021;32;20216;-68
2020/12/12 08:09:51;;;;;;;59.07;31.20;;;6.10;99.90;;;;;;4391364;32;20184;-68
2020/12/12 08:12:29;;;;;;;53.87;30.80;;;6.10;99.90;;;;;;4396152;32;20155;-67
2020/12/12 08:15:11;;;;;;;59.17;32.87;;;6.10;99.90;;;;;;4400474;32;20148;-68
2020/12/12 08:17:37;;;;;;;55.23;30.47;;;6.10;99.90;;;;;;4395675;32;20187;-69
2020/12/12 08:20:14;;;;;;;57.00;30.60;;;6.10;99.90;;;;;;4403869;32;20175;-68
2020/12/12 08:22:45;;;;;;;55.73;30.00;;;6.20;99.90;;;;;;4397489;32;20160;-68
2020/12/12 08:25:11;;;;;;;57.57;31.07;;;6.10;99.90;;;;;;4395627;32;20183;-68
2020/12/12 08:27:41;;;;;;;60.33;32.27;;;6.20;99.90;;;;;;4390509;32;20235;-69
2020/12/12 08:30:08;;;;;;;59.20;30.63;;;6.20;99.90;;;;;;4389632;32;20228;-68
2020/12/12 08:32:46;;;;;;;58.30;30.17;;;6.10;99.90;;;;;;4394248;32;20202;-68
2020/12/12 08:35:18;;;;;;;58.93;30.87;;;6.40;99.90;;;;;;4393305;32;20186;-69
2020/12/12 08:37:54;;;;;;;54.13;29.10;;;6.30;99.90;;;;;;4402719;32;20219;-69
2020/12/12 08:40:25;;;;;;;61.47;30.27;;;6.30;99.90;;;;;;4392381;32;20209;-68
2020/12/12 08:43:05;;;;;;;58.67;31.43;;;6.30;99.90;;;;;;4392202;32;20180;-67
2020/12/12 08:45:37;;;;;;;59.37;32.17;;;6.40;99.90;;;;;;4394137;32;20235;-68
2020/12/12 08:48:07;;;;;;;64.60;32.27;;;6.50;99.90;;;;;;4402483;32;20611;-69
2020/12/12 08:50:46;;;;;;;66.47;32.03;;;6.50;99.90;;;;;;4396976;32;20156;-68
2020/12/12 08:53:30;;;;;;;73.80;32.83;;;6.50;99.90;;;;;;4396416;32;20182;-67
2020/12/12 08:56:11;;;;;;;59.73;31.20;;;6.60;99.90;;;;;;4397122;32;20176;-68
2020/12/12 08:58:48;;;;;;;64.60;31.83;;;6.60;99.90;;;;;;4396714;32;20671;-69
2020/12/12 09:01:29;;;;;;;67.97;34.03;;;6.50;99.90;;;;;;4395781;32;20179;-69
2020/12/12 09:03:58;;;;;;;78.67;36.13;;;6.60;99.90;;;;;;4399702;32;20610;-69
2020/12/12 09:06:26;;;;;;;70.63;34.77;;;6.60;99.90;;;;;;4395244;32;20269;-69
2020/12/12 09:09:10;;;;;;;70.80;35.23;;;6.60;99.90;;;;;;4401277;32;20215;-69
2020/12/12 09:11:37;;;;;;;72.47;34.27;;;6.60;99.90;;;;;;4407125;32;20210;-69
2020/12/12 09:14:08;;;;;;;70.53;35.63;;;6.60;99.90;;;;;;4405153;32;20215;-70
2020/12/12 09:16:37;;;;;;;69.40;34.90;;;6.60;99.90;;;;;;4393400;32;20179;-69
2020/12/12 09:19:09;;;;;;;71.70;35.00;;;6.60;99.90;;;;;;4401614;32;20249;-70
2020/12/12 09:21:38;;;;;;;78.47;35.50;;;6.80;99.90;;;;;;4402723;32;20191;-69
2020/12/12 09:24:06;;;;;;;65.87;33.37;;;6.80;99.90;;;;;;4399373;32;20223;-70
2020/12/12 09:26:34;;;;;;;69.03;34.70;;;6.90;99.90;;;;;;4396192;32;20180;-70
2020/12/12 09:29:05;;;;;;;72.27;34.60;;;6.90;99.90;;;;;;4395301;32;20178;-69
2020/12/12 09:31:32;;;;;;;73.33;35.63;;;6.90;99.90;;;;;;4396990;32;20210;-69
2020/12/12 09:34:01;;;;;;;71.40;34.20;;;6.80;99.90;;;;;;4397594;32;20157;-69
2020/12/12 09:36:27;;;;;;;74.17;34.87;;;6.80;99.90;;;;;;4401081;32;20245;-69
2020/12/12 09:38:55;;;;;;;72.67;34.47;;;6.90;99.90;;;;;;4392071;32;20206;-68
2020/12/12 09:41:22;;;;;;;69.53;33.93;;;6.90;99.90;;;;;;4393712;32;20160;-69
2020/12/12 09:43:49;;;;;;;65.67;33.17;;;7.00;99.90;;;;;;4391351;32;20220;-70
2020/12/12 09:46:18;;;;;;;78.13;36.17;;;7.00;99.90;;;;;;4391500;32;20203;-71
2020/12/12 09:48:45;;;;;;;69.57;35.27;;;7.10;99.90;;;;;;4398289;32;20173;-70
2020/12/12 09:51:18;;;;;;;68.37;33.43;;;7.10;99.90;;;;;;4401408;32;20207;-70
2020/12/12 09:53:45;;;;;;;72.40;36.00;;;7.20;99.90;;;;;;4401716;32;20176;-68
2020/12/12 09:56:17;;;;;;;69.60;33.47;;;7.30;99.90;;;;;;4391790;32;20211;-69
2020/12/12 09:58:45;;;;;;;69.03;34.80;;;7.20;99.90;;;;;;4391409;32;20182;-68
2020/12/12 10:01:13;;;;;;;67.30;33.13;;;7.20;99.90;;;;;;4394596;32;20163;-69
2020/12/12 10:03:40;;;;;;;68.40;34.17;;;7.30;99.90;;;;;;4395250;32;20528;-69
2020/12/12 10:06:09;;;;;;;71.63;35.77;;;7.40;99.90;;;;;;4391641;32;20500;-67
2020/12/12 10:08:36;;;;;;;73.43;33.93;;;7.40;99.90;;;;;;4393061;32;20160;-68
2020/12/12 10:11:03;;;;;;;76.70;35.73;;;7.40;99.90;;;;;;4399171;32;20179;-69
2020/12/12 10:13:29;;;;;;;74.20;35.63;;;7.40;99.90;;;;;;4394315;32;20496;-69
2020/12/12 10:16:02;;;;;;;74.20;34.43;;;7.60;99.90;;;;;;4394090;32;20537;-71
2020/12/12 10:18:30;;;;;;;73.43;34.73;;;7.60;99.90;;;;;;4397597;32;20214;-71
2020/12/12 10:20:58;;;;;;;71.70;34.87;;;7.60;99.90;;;;;;4396085;32;20220;-71
2020/12/12 10:23:32;;;;;;;84.93;36.13;;;7.70;99.90;;;;;;4387822;32;20219;-69
2020/12/12 10:26:11;;;;;;;77.67;35.47;;;7.80;99.90;;;;;;4388336;32;20650;-69
2020/12/12 10:28:38;;;;;;;82.50;38.23;;;7.80;99.90;;;;;;4395597;32;20199;-69
2020/12/12 10:31:05;;;;;;;91.53;37.40;;;7.90;99.90;;;;;;4394809;32;20212;-72
2020/12/12 10:33:31;;;;;;;88.47;38.50;;;7.90;99.90;;;;;;4394717;32;20278;-70
2020/12/12 10:35:59;;;;;;;101.67;40.80;;;7.90;99.90;;;;;;4393462;32;20243;-72
2020/12/12 10:38:35;;;;;;;82.00;37.07;;;7.90;99.90;;;;;;4391381;32;20163;-73
2020/12/12 10:41:11;;;;;;;86.03;37.73;;;8.00;99.90;;;;;;4391561;32;20198;-71
2020/12/12 10:43:38;;;;;;;84.43;38.77;;;7.90;99.90;;;;;;4392347;32;20217;-68
2020/12/12 10:46:05;;;;;;;80.20;37.13;;;7.90;99.90;;;;;;4392424;32;20223;-72
2020/12/12 10:48:32;;;;;;;89.43;37.23;;;7.90;99.90;;;;;;4392639;32;20885;-71
2020/12/12 10:50:58;;;;;;;85.43;37.03;;;8.10;99.90;;;;;;4391422;32;20585;-71
2020/12/12 10:53:25;;;;;;;90.90;38.93;;;8.20;99.90;;;;;;4392331;32;20231;-70
2020/12/12 10:55:54;;;;;;;83.90;37.93;;;8.20;99.90;;;;;;4390638;32;20202;-69
2020/12/12 10:58:20;;;;;;;77.07;34.43;;;8.30;99.90;;;;;;4393993;32;20181;-69
2020/12/12 11:00:49;;;;;;;74.37;35.33;;;8.30;99.90;;;;;;4382902;32;20699;-70
2020/12/12 11:03:17;;;;;;;77.53;34.03;;;8.30;99.90;;;;;;4381087;32;20531;-69
2020/12/12 11:05:43;;;;;;;86.83;37.23;;;8.30;99.90;;;;;;4390964;32;20222;-68
2020/12/12 11:08:09;;;;;;;75.83;34.57;;;8.30;99.90;;;;;;4395040;32;20194;-68
2020/12/12 11:10:36;;;;;;;82.60;36.50;;;8.30;99.90;;;;;;4389655;32;20224;-67
2020/12/12 11:13:03;;;;;;;78.67;35.83;;;8.30;99.90;;;;;;4400280;32;20665;-69
2020/12/12 11:15:29;;;;;;;75.97;34.23;;;8.30;99.90;;;;;;4393074;32;20160;-70
2020/12/12 11:17:55;;;;;;;84.27;37.67;;;8.30;99.90;;;;;;4396937;32;20538;-70
2020/12/12 11:20:22;;;;;;;82.93;37.97;;;8.40;99.90;;;;;;4388427;32;20203;-68
2020/12/12 11:22:49;;;;;;;91.43;38.30;;;8.40;99.90;;;;;;4393244;32;20168;-69
2020/12/12 11:25:17;;;;;;;87.00;36.00;;;8.50;99.90;;;;;;4382788;32;20180;-71
2020/12/12 11:27:46;;;;;;;87.70;37.93;;;8.40;99.90;;;;;;4390720;32;20293;-70
2020/12/12 11:30:12;;;;;;;89.53;36.13;;;8.40;99.90;;;;;;4387376;32;20207;-72
2020/12/12 11:32:39;;;;;;;97.83;38.37;;;8.50;99.90;;;;;;4396018;32;20164;-70
2020/12/12 11:35:13;;;;;;;97.80;38.97;;;8.50;99.90;;;;;;4399770;32;20209;-68
2020/12/12 11:37:56;;;;;;;87.30;37.50;;;8.50;99.90;;;;;;4401518;32;20159;-69
2020/12/12 11:40:26;;;;;;;89.87;37.33;;;8.50;99.90;;;;;;4395528;32;20531;-69
2020/12/12 11:48:35;;;;;;;98.70;41.77;;;8.50;99.90;;;;;;4395761;32;20159;-69
2020/12/12 11:51:02;;;;;;;110.97;47.60;;;8.50;99.90;;;;;;4393309;32;20231;-70
2020/12/12 11:53:30;;;;;;;86.07;36.80;;;8.60;99.90;;;;;;4397297;32;20520;-70
2020/12/12 11:56:00;;;;;;;84.00;36.97;;;8.50;99.90;;;;;;4394702;32;20180;-71
2020/12/12 11:58:26;;;;;;;90.17;35.83;;;8.60;99.90;;;;;;4395561;32;20182;-71
2020/12/12 12:00:52;;;;;;;86.40;34.30;;;8.60;99.90;;;;;;4395730;32;20171;-69
2020/12/12 12:03:19;;;;;;;80.83;34.87;;;8.70;99.90;;;;;;4392415;32;20148;-71
2020/12/12 12:05:49;;;;;;;77.37;33.90;;;8.70;99.90;;;;;;4392484;32;20219;-70
2020/12/12 12:08:23;;;;;;;84.03;34.20;;;8.80;99.90;;;;;;4395004;32;20674;-69
2020/12/12 12:13:34;;;;;;;78.80;33.97;;;8.90;99.90;;;;;;4358996;33;20170;-70
2020/12/12 12:16:00;;;;;;;80.00;34.00;;;8.80;99.90;;;;;;4353898;33;20153;-73
2020/12/12 12:18:27;;;;;;;89.00;36.77;;;8.80;99.90;;;;;;4357648;32;20235;-70
2020/12/12 12:20:53;;;;;;;93.70;36.30;;;8.80;99.90;;;;;;4357027;33;20195;-72
2020/12/12 12:23:19;;;;;;;106.53;39.93;;;8.80;99.90;;;;;;4355374;32;20194;-70
2020/12/12 12:25:46;;;;;;;121.93;42.93;;;8.90;99.90;;;;;;4356176;32;20667;-70
2020/12/12 12:28:15;;;;;;;111.23;42.10;;;8.90;99.90;;;;;;4357402;33;20231;-70
2020/12/12 12:30:43;;;;;;;110.43;40.77;;;8.90;99.90;;;;;;4355736;33;20153;-71
2020/12/12 12:33:09;;;;;;;111.67;41.00;;;9.00;99.90;;;;;;4359838;32;20607;-72
2020/12/12 12:35:36;;;;;;;102.80;38.50;;;9.10;99.90;;;;;;4358372;33;20739;-71
2020/12/12 12:38:02;;;;;;;119.10;41.47;;;9.00;99.90;;;;;;4356194;33;20175;-72
2020/12/12 12:40:28;;;;;;;110.37;40.53;;;8.90;99.90;;;;;;4357549;33;20233;-72
2020/12/12 12:42:57;;;;;;;112.23;38.70;;;9.00;99.90;;;;;;4359018;32;20311;-70
2020/12/12 12:45:24;;;;;;;111.60;40.10;;;9.00;99.90;;;;;;4357446;33;20200;-72
2020/12/12 12:47:51;;;;;;;118.30;45.40;;;9.00;99.90;;;;;;4356951;33;20239;-70
2020/12/12 12:50:18;;;;;;;122.80;48.77;;;9.00;99.90;;;;;;4367848;32;20179;-68
2020/12/12 12:52:44;;;;;;;119.30;43.90;;;9.10;99.90;;;;;;4394619;32;20183;-68
2020/12/12 12:55:11;;;;;;;130.43;51.97;;;9.00;99.90;;;;;;4396071;32;20162;-71